Time;durP1;ratioP1;P1;durP2;ratioP2;P2;SDS_P1;SDS_P2;PMS_P1;PMS_P2;Temp;Humidity;BMP_temperature;BMP_pressure;BME280_temperature;BME280_humidity;BME280_pressure;Samples;Min_cycle;Max_cycle;Signal;HPM_P1;HPM_P2
2022/10/21 00:00:15;;;;;;;43.45;21.45;;;;;;;13.62;100.00;100457.28;5054862;28;20037;-58
2022/10/21 00:02:42;;;;;;;58.70;21.73;;;;;;;13.58;100.00;100464.81;5054815;28;20060;-58
2022/10/21 00:05:09;;;;;;;39.65;20.45;;;;;;;13.58;100.00;100451.50;5054145;28;20457;-58
2022/10/21 00:07:35;;;;;;;40.72;21.45;;;;;;;13.53;100.00;100450.38;5054039;28;20048;-58
2022/10/21 00:10:04;;;;;;;37.75;19.83;;;;;;;13.55;100.00;100459.03;5034903;28;20501;-58
2022/10/21 00:12:31;;;;;;;43.45;20.33;;;;;;;13.53;100.00;100450.38;5034390;28;20541;-58
2022/10/21 00:14:58;;;;;;;42.58;19.65;;;;;;;13.56;100.00;100453.50;5034356;28;20107;-58
2022/10/21 00:17:25;;;;;;;39.83;19.25;;;;;;;13.53;100.00;100445.06;5034602;28;20046;-58
2022/10/21 00:19:51;;;;;;;35.15;19.38;;;;;;;13.54;100.00;100439.53;5040815;28;20102;-58
2022/10/21 00:22:18;;;;;;;38.10;20.00;;;;;;;13.55;100.00;100451.88;5054591;28;20044;-58
2022/10/21 00:24:44;;;;;;;35.17;19.00;;;;;;;13.53;100.00;100445.06;5053024;28;20052;-59
2022/10/21 00:27:12;;;;;;;35.88;19.10;;;;;;;13.51;100.00;100447.06;5054475;28;20059;-58
2022/10/21 00:29:39;;;;;;;32.90;18.85;;;;;;;13.52;100.00;100451.41;5053948;28;20064;-58
2022/10/21 00:32:05;;;;;;;39.22;18.35;;;;;;;13.54;100.00;100452.88;5053199;28;20052;-58
2022/10/21 00:34:32;;;;;;;33.67;17.92;;;;;;;13.52;100.00;100438.09;5054141;28;20107;-58
2022/10/21 00:36:59;;;;;;;41.08;18.98;;;;;;;13.56;100.00;100442.84;5053946;28;20045;-58
2022/10/21 00:39:26;;;;;;;45.90;20.20;;;;;;;13.57;100.00;100439.19;5038718;28;20075;-58
2022/10/21 00:41:53;;;;;;;39.15;18.23;;;;;;;13.54;100.00;100438.72;5033951;28;20041;-58
2022/10/21 00:44:19;;;;;;;40.25;17.70;;;;;;;13.55;100.00;100443.88;5034124;28;20095;-58
2022/10/21 00:46:52;;;;;;;37.85;17.95;;;;;;;13.54;100.00;100438.72;5033492;28;20089;-57
2022/10/21 00:49:31;;;;;;;38.53;18.48;;;;;;;13.58;100.00;100442.69;5035914;28;20053;-58
2022/10/21 00:52:00;;;;;;;40.63;18.95;;;;;;;13.60;100.00;100430.00;5016514;28;20052;-58
2022/10/21 00:54:28;;;;;;;36.28;18.55;;;;;;;13.55;100.00;100429.72;5053533;28;20394;-58
2022/10/21 00:56:56;;;;;;;36.63;19.15;;;;;;;13.52;100.00;100435.41;5053649;28;20037;-58
2022/10/21 00:59:27;;;;;;;40.15;18.98;;;;;;;13.55;100.00;100435.03;5053722;28;20098;-58
2022/10/21 01:01:54;;;;;;;37.13;20.40;;;;;;;13.59;100.00;100420.38;5053821;28;20045;-58
2022/10/21 01:04:21;;;;;;;37.45;18.73;;;;;;;13.55;100.00;100425.22;5053094;28;20548;-58
2022/10/21 01:06:49;;;;;;;43.65;18.02;;;;;;;13.54;100.00;100422.75;5053045;28;20068;-58
2022/10/21 01:09:18;;;;;;;36.22;17.90;;;;;;;13.49;100.00;100427.78;5038707;28;20045;-58
2022/10/21 01:11:46;;;;;;;32.60;18.67;;;;;;;13.41;100.00;100416.19;5033153;28;20076;-59
2022/10/21 01:14:46;;;;;;;38.10;18.83;;;;;;;13.41;100.00;100413.53;5033803;28;20131;-58
2022/10/21 01:20:30;;;;;;;43.50;20.25;;;;;;;13.36;100.00;100399.91;5157422;27;454356;-56
2022/10/21 01:23:27;;;;;;;36.65;17.70;;;;;;;13.39;100.00;100406.72;5151464;27;20043;-56
2022/10/21 01:26:33;;;;;;;33.88;17.63;;;;;;;13.33;100.00;100394.94;5152031;27;20438;-58
2022/10/21 01:29:30;;;;;;;35.50;17.45;;;;;;;13.35;100.00;100394.75;5151784;27;20039;-56
2022/10/21 01:35:02;;;;;;;46.08;17.33;;;;;;;13.25;100.00;100384.34;5103089;27;20156;-56
2022/10/21 01:37:41;;;;;;;38.17;17.60;;;;;;;13.30;100.00;100378.44;5102545;28;20043;-56
2022/10/21 01:40:17;;;;;;;36.85;17.67;;;;;;;13.34;100.00;100382.47;5079951;28;20052;-57
2022/10/21 01:42:52;;;;;;;35.40;17.70;;;;;;;13.32;100.00;100377.31;5050534;28;20574;-58
2022/10/21 01:45:32;;;;;;;39.65;17.88;;;;;;;13.30;100.00;100371.31;5053637;28;20402;-58
2022/10/21 01:48:04;;;;;;;38.58;16.63;;;;;;;13.22;100.00;100371.38;5050117;28;20064;-57
2022/10/21 01:50:35;;;;;;;33.50;16.92;;;;;;;13.25;100.00;100371.84;5074024;28;20050;-57
2022/10/21 01:53:08;;;;;;;38.47;17.30;;;;;;;13.29;100.00;100366.97;5053269;28;20490;-57
2022/10/21 01:55:37;;;;;;;32.35;16.45;;;;;;;13.23;100.00;100370.38;5090268;28;20568;-58
2022/10/21 01:58:09;;;;;;;33.17;16.00;;;;;;;13.25;100.00;100365.69;5090185;28;20052;-58
2022/10/21 02:00:38;;;;;;;31.48;16.52;;;;;;;13.20;100.00;100365.41;5090185;28;20119;-58
2022/10/21 02:03:10;;;;;;;34.75;16.80;;;;;;;13.17;100.00;100358.59;5089758;28;20090;-57
2022/10/21 02:05:36;;;;;;;32.13;15.55;;;;;;;13.15;100.00;100352.63;5089382;28;20056;-57
2022/10/21 02:08:04;;;;;;;32.45;14.60;;;;;;;13.23;100.00;100359.72;5085854;28;20048;-58
2022/10/21 02:10:35;;;;;;;29.88;14.55;;;;;;;13.17;100.00;100353.28;5069918;28;20102;-57
2022/10/21 02:13:08;;;;;;;33.63;15.68;;;;;;;13.20;100.00;100350.22;5069709;28;20509;-57
2022/10/21 02:15:36;;;;;;;36.03;15.32;;;;;;;13.20;100.00;100328.09;5069524;28;20049;-57
2022/10/21 02:18:06;;;;;;;32.03;14.23;;;;;;;13.18;100.00;100327.47;5069204;28;20060;-57
2022/10/21 02:20:38;;;;;;;28.60;13.68;;;;;;;13.17;100.00;100331.97;5114499;28;20041;-57
2022/10/21 02:23:09;;;;;;;26.58;13.68;;;;;;;13.19;100.00;100324.63;5071608;28;20063;-57
2022/10/21 02:25:39;;;;;;;26.88;13.20;;;;;;;13.28;100.00;100319.19;5089564;28;20048;-58
2022/10/21 02:28:06;;;;;;;29.92;13.63;;;;;;;13.21;100.00;100324.44;5089746;28;20374;-58
2022/10/21 02:30:44;;;;;;;27.00;11.98;;;;;;;13.22;100.00;100318.09;5089671;28;20459;-59
2022/10/21 02:33:26;;;;;;;31.55;12.70;;;;;;;13.24;100.00;100322.25;5089140;28;20048;-58
2022/10/21 02:36:10;;;;;;;26.30;12.25;;;;;;;13.21;100.00;100321.78;5089855;28;20408;-58
2022/10/21 02:38:45;;;;;;;23.88;11.45;;;;;;;13.17;100.00;100321.31;5080475;28;20152;-57
2022/10/21 02:41:15;;;;;;;19.73;11.20;;;;;;;13.27;100.00;100325.56;5068946;28;20045;-57
2022/10/21 02:43:50;;;;;;;22.00;11.45;;;;;;;13.24;100.00;100327.56;5069498;28;20036;-57
2022/10/21 02:46:17;;;;;;;25.63;10.88;;;;;;;13.20;100.00;100322.78;5055422;28;20048;-57
2022/10/21 02:48:46;;;;;;;22.80;11.30;;;;;;;13.23;100.00;100322.44;5087918;28;20103;-57
2022/10/21 02:51:14;;;;;;;31.52;10.95;;;;;;;13.30;100.00;100320.69;5070526;28;20052;-57
2022/10/21 02:53:41;;;;;;;25.75;10.85;;;;;;;13.19;100.00;100323.81;5075689;28;20041;-57
2022/10/21 02:56:08;;;;;;;23.40;10.13;;;;;;;13.18;100.00;100327.47;5075919;28;20044;-57
2022/10/21 02:58:35;;;;;;;19.98;10.65;;;;;;;13.16;100.00;100324.16;5074458;28;20045;-58
2022/10/21 03:01:02;;;;;;;27.30;9.88;;;;;;;13.16;100.00;100324.16;5075700;28;20129;-57
2022/10/21 03:03:28;;;;;;;20.52;10.25;;;;;;;13.20;100.00;100320.13;5075229;28;20047;-58
2022/10/21 03:05:56;;;;;;;20.95;9.93;;;;;;;13.18;100.00;100314.97;5075223;28;20048;-57
2022/10/21 03:08:23;;;;;;;19.17;9.57;;;;;;;13.21;100.00;100319.13;5068591;28;20136;-57
2022/10/21 03:10:50;;;;;;;22.67;9.38;;;;;;;13.18;100.00;100314.16;5087569;28;20045;-57
2022/10/21 03:13:17;;;;;;;21.38;9.90;;;;;;;13.19;100.00;100313.97;5055314;28;20544;-58
2022/10/21 03:15:44;;;;;;;22.55;9.70;;;;;;;13.18;100.00;100322.13;5055281;28;20094;-57
2022/10/21 03:18:10;;;;;;;26.98;9.93;;;;;;;13.19;100.00;100327.28;5055455;28;20044;-57
2022/10/21 03:20:37;;;;;;;22.35;9.60;;;;;;;13.17;100.00;100325.78;5067961;28;20071;-57
2022/10/21 03:23:04;;;;;;;18.00;9.10;;;;;;;13.22;100.00;100326.09;5074912;28;20048;-57
2022/10/21 03:25:30;;;;;;;19.70;9.98;;;;;;;13.19;100.00;100334.47;5073969;28;20048;-57
2022/10/21 03:28:00;;;;;;;19.98;9.23;;;;;;;13.25;100.00;100329.22;5057225;28;20048;-57
2022/10/21 03:30:27;;;;;;;21.58;9.07;;;;;;;13.24;100.00;100324.06;5074924;28;20047;-57
2022/10/21 03:32:54;;;;;;;23.08;9.65;;;;;;;13.21;100.00;100329.78;5073177;28;20071;-57
2022/10/21 03:35:21;;;;;;;20.77;9.23;;;;;;;13.29;100.00;100326.19;5074899;28;20090;-57
2022/10/21 03:37:47;;;;;;;20.90;9.10;;;;;;;13.23;100.00;100325.09;5073105;28;20040;-57
2022/10/21 03:40:14;;;;;;;26.58;9.98;;;;;;;13.24;100.00;100321.41;5054634;28;20494;-57
2022/10/21 03:42:41;;;;;;;20.40;9.27;;;;;;;13.23;100.00;100325.09;5054675;28;20372;-57
2022/10/21 03:45:08;;;;;;;19.00;9.75;;;;;;;13.27;100.00;100317.56;5054636;28;20049;-57
2022/10/21 03:47:35;;;;;;;19.30;8.80;;;;;;;13.29;100.00;100324.34;5052258;28;20376;-57
2022/10/21 03:50:02;;;;;;;19.42;9.18;;;;;;;13.24;100.00;100314.25;5062212;28;20390;-57
2022/10/21 03:52:29;;;;;;;19.58;9.38;;;;;;;13.29;100.00;100323.53;5036436;28;20037;-58
2022/10/21 03:54:56;;;;;;;18.90;8.80;;;;;;;13.20;100.00;100315.59;5074172;28;20044;-57
2022/10/21 03:57:22;;;;;;;21.85;9.93;;;;;;;13.19;100.00;100313.97;5073284;28;20070;-57
2022/10/21 03:59:49;;;;;;;22.20;9.25;;;;;;;13.22;100.00;100310.09;5074500;28;20076;-58
2022/10/21 04:02:16;;;;;;;26.27;9.75;;;;;;;13.24;100.00;100314.25;5073159;28;20048;-58
2022/10/21 04:04:42;;;;;;;21.83;9.55;;;;;;;13.25;100.00;100313.22;5073723;28;20033;-59
2022/10/21 04:07:09;;;;;;;21.98;10.25;;;;;;;13.19;100.00;100311.31;5072694;28;20942;-57
2022/10/21 04:09:36;;;;;;;22.55;9.32;;;;;;;13.14;100.00;100312.88;5057740;28;20522;-57
2022/10/21 04:12:03;;;;;;;19.42;9.18;;;;;;;13.21;100.00;100309.28;5052463;28;20048;-57
2022/10/21 04:14:29;;;;;;;21.65;8.90;;;;;;;13.20;100.00;100320.13;5054205;28;20045;-57
2022/10/21 04:16:56;;;;;;;22.20;9.75;;;;;;;13.18;100.00;100317.63;5054269;28;20056;-57
2022/10/21 04:19:28;;;;;;;18.80;9.18;;;;;;;13.16;100.00;100317.00;5057235;28;20045;-57
2022/10/21 04:21:54;;;;;;;23.23;9.13;;;;;;;13.21;100.00;100327.13;5074059;28;20044;-57
2022/10/21 04:24:21;;;;;;;19.83;8.50;;;;;;;13.20;100.00;100320.94;5073797;28;20398;-58
2022/10/21 04:26:47;;;;;;;23.23;9.25;;;;;;;13.27;100.00;100313.06;5073528;28;20037;-58
2022/10/21 04:29:14;;;;;;;23.88;8.85;;;;;;;13.28;100.00;100316.53;5073792;28;20057;-58
2022/10/21 04:31:41;;;;;;;20.27;8.70;;;;;;;13.26;100.00;100316.72;5072751;28;20048;-58
2022/10/21 04:34:08;;;;;;;24.63;8.80;;;;;;;13.33;100.00;100315.00;5073693;28;20541;-58
2022/10/21 04:36:35;;;;;;;18.75;8.23;;;;;;;13.32;100.00;100324.03;5073607;28;20052;-58
2022/10/21 04:39:02;;;;;;;19.52;8.45;;;;;;;13.34;100.00;100316.69;5060620;28;20064;-58
2022/10/21 04:41:29;;;;;;;21.33;8.13;;;;;;;13.34;100.00;100326.53;5053747;28;20051;-58
2022/10/21 04:43:55;;;;;;;16.73;7.45;;;;;;;13.43;100.00;100320.09;5053865;28;20063;-57
2022/10/21 04:46:22;;;;;;;25.73;8.48;;;;;;;13.43;100.00;100320.09;5035744;28;20052;-58
2022/10/21 04:48:49;;;;;;;18.02;7.35;;;;;;;13.46;100.00;100314.38;5053278;28;20502;-58
2022/10/21 04:51:16;;;;;;;15.85;7.55;;;;;;;13.47;100.00;100307.22;5039449;28;20106;-58
2022/10/21 04:53:43;;;;;;;14.80;7.35;;;;;;;13.53;100.00;100311.81;5069681;28;20036;-58
2022/10/21 04:56:09;;;;;;;15.63;7.18;;;;;;;13.56;100.00;100316.78;5073620;28;20089;-57
2022/10/21 04:58:36;;;;;;;19.23;7.57;;;;;;;13.53;100.00;100315.28;5072987;28;20404;-57
2022/10/21 05:01:03;;;;;;;16.95;7.72;;;;;;;13.55;100.00;100307.13;5073317;28;20044;-57
2022/10/21 05:03:29;;;;;;;15.18;7.60;;;;;;;13.54;100.00;100302.81;5072072;28;20135;-57
2022/10/21 05:05:56;;;;;;;16.00;6.97;;;;;;;13.56;100.00;100304.28;5072967;28;20056;-57
2022/10/21 05:08:23;;;;;;;16.77;7.20;;;;;;;13.53;100.00;100293.97;5066372;28;20055;-57
2022/10/21 05:10:57;;;;;;;18.77;7.80;;;;;;;13.57;100.00;100299.78;5051764;28;20049;-57
2022/10/21 05:13:24;;;;;;;16.50;7.22;;;;;;;13.56;100.00;100292.81;5053188;28;20056;-57
2022/10/21 05:15:50;;;;;;;18.00;7.70;;;;;;;13.59;100.00;100295.94;5053045;28;20052;-58
2022/10/21 05:18:17;;;;;;;14.90;6.60;;;;;;;13.55;100.00;100289.31;5053335;28;20044;-58
2022/10/21 05:20:50;;;;;;;16.17;6.55;;;;;;;13.55;100.00;100283.13;5066565;28;20067;-58
2022/10/21 05:23:17;;;;;;;15.88;7.35;;;;;;;13.51;100.00;100281.88;5073218;28;20106;-58
2022/10/21 05:25:44;;;;;;;16.02;7.25;;;;;;;13.55;100.00;100285.81;5073119;28;20056;-58
2022/10/21 05:28:11;;;;;;;17.77;6.72;;;;;;;13.54;100.00;100278.84;5072578;28;20040;-58
2022/10/21 05:30:38;;;;;;;14.80;7.05;;;;;;;13.54;100.00;100270.84;5073079;28;20094;-58
2022/10/21 05:33:05;;;;;;;18.42;7.47;;;;;;;13.51;100.00;100271.22;5071276;28;20166;-58
2022/10/21 05:35:32;;;;;;;14.98;7.28;;;;;;;13.47;100.00;100267.25;5072653;28;20506;-58
2022/10/21 05:37:59;;;;;;;18.75;6.85;;;;;;;13.46;100.00;100263.75;5069330;28;20049;-58
2022/10/21 05:40:25;;;;;;;17.60;6.72;;;;;;;13.52;100.00;100256.88;5052804;28;20053;-58
2022/10/21 05:42:52;;;;;;;17.30;6.85;;;;;;;13.52;100.00;100254.22;5052536;28;20384;-58
2022/10/21 05:45:19;;;;;;;16.75;6.95;;;;;;;13.52;100.00;100248.88;5052520;28;20049;-58
2022/10/21 05:47:46;;;;;;;22.70;6.78;;;;;;;13.52;100.00;100256.88;5046520;28;20056;-58
2022/10/21 05:50:13;;;;;;;18.40;6.55;;;;;;;13.52;100.00;100247.03;5050679;28;20048;-58
2022/10/21 05:52:40;;;;;;;13.65;6.55;;;;;;;13.51;100.00;100237.38;5033313;28;20055;-60
2022/10/21 05:55:08;;;;;;;17.80;6.43;;;;;;;13.53;100.00;100248.69;5070434;28;20439;-58
2022/10/21 05:57:37;;;;;;;17.30;6.45;;;;;;;13.59;100.00;100236.47;5072276;28;20490;-58
2022/10/21 06:00:05;;;;;;;14.18;6.35;;;;;;;13.61;100.00;100231.78;5072251;28;20559;-62
2022/10/21 06:02:42;;;;;;;16.25;6.38;;;;;;;13.64;100.00;100239.38;5102399;27;20123;-58
2022/10/21 06:05:08;;;;;;;15.57;6.13;;;;;;;13.65;100.00;100241.06;5069906;28;20053;-57
2022/10/21 06:07:35;;;;;;;12.35;6.22;;;;;;;13.66;100.00;100245.38;5069427;28;20496;-57
2022/10/21 06:10:03;;;;;;;17.67;6.25;;;;;;;13.71;100.00;100244.81;5049077;28;20045;-58
2022/10/21 06:12:30;;;;;;;13.43;6.05;;;;;;;13.73;100.00;100240.94;5049557;28;20398;-58
2022/10/21 06:14:56;;;;;;;17.77;5.95;;;;;;;13.77;100.00;100236.91;5050282;28;20041;-58
2022/10/21 06:17:23;;;;;;;17.98;5.97;;;;;;;13.76;100.00;100245.91;5050045;28;20049;-58
2022/10/21 06:19:50;;;;;;;14.65;5.63;;;;;;;13.76;100.00;100247.75;5051056;28;20041;-59
2022/10/21 06:22:17;;;;;;;15.18;6.00;;;;;;;13.73;100.00;100243.59;5049598;28;20041;-58
2022/10/21 06:24:44;;;;;;;16.00;6.20;;;;;;;13.76;100.00;100234.41;5049877;28;20103;-57
2022/10/21 06:27:12;;;;;;;14.60;5.72;;;;;;;13.76;100.00;100232.56;5049667;28;20041;-57
2022/10/21 06:29:39;;;;;;;17.50;5.43;;;;;;;13.75;100.00;100241.59;5064843;28;20128;-57
2022/10/21 06:32:05;;;;;;;15.38;6.00;;;;;;;13.81;100.00;100253.34;5081643;28;20045;-57
2022/10/21 06:34:32;;;;;;;13.65;5.70;;;;;;;13.82;100.00;100245.16;5049697;28;20463;-57
2022/10/21 06:36:59;;;;;;;16.70;5.53;;;;;;;13.83;100.00;100249.47;5049579;28;20415;-57
2022/10/21 06:39:27;;;;;;;21.85;5.53;;;;;;;13.93;100.00;100256.34;5065003;28;20045;-57
2022/10/21 06:41:53;;;;;;;13.95;6.13;;;;;;;13.92;100.00;100258.19;5068292;28;20041;-58
2022/10/21 06:44:41;;;;;;;13.43;5.60;;;;;;;13.95;100.00;100259.66;5068255;28;20514;-58
2022/10/21 06:47:08;;;;;;;14.18;6.68;;;;;;;13.98;100.00;100256.59;5069053;28;20045;-57
2022/10/21 06:49:34;;;;;;;17.60;5.68;;;;;;;14.05;100.00;100262.03;5073393;28;20113;-58
2022/10/21 06:52:01;;;;;;;15.40;5.53;;;;;;;14.00;100.00;100247.41;5050061;28;20044;-57
2022/10/21 06:54:28;;;;;;;12.15;5.05;;;;;;;14.05;100.00;100251.34;5088442;28;20044;-57
2022/10/21 06:56:55;;;;;;;13.55;5.10;;;;;;;14.09;100.00;100260.63;5089786;28;20054;-57
2022/10/21 06:59:21;;;;;;;15.63;5.00;;;;;;;14.06;100.00;100274.34;5089315;28;20048;-58
2022/10/21 07:01:48;;;;;;;19.80;5.95;;;;;;;14.09;100.00;100261.44;5089419;28;20056;-57
2022/10/21 07:04:24;;;;;;;14.90;5.55;;;;;;;14.13;100.00;100278.72;5087626;28;20037;-58
2022/10/21 07:06:51;;;;;;;17.90;5.88;;;;;;;14.11;100.00;100272.75;5088616;28;20052;-58
2022/10/21 07:09:18;;;;;;;21.38;6.50;;;;;;;14.11;100.00;100269.25;5061446;28;20555;-58
2022/10/21 07:11:44;;;;;;;18.73;7.28;;;;;;;14.15;100.00;100282.03;5068864;28;20043;-58
2022/10/21 07:14:11;;;;;;;22.52;7.90;;;;;;;14.21;100.00;100291.13;5087278;28;20060;-58
2022/10/21 07:16:38;;;;;;;145.18;37.10;;;;;;;14.23;100.00;100302.44;5055509;28;20075;-58
2022/10/21 07:19:05;;;;;;;205.73;55.15;;;;;;;14.21;100.00;100304.47;5055838;28;20053;-58
2022/10/21 07:21:32;;;;;;;143.55;36.60;;;;;;;14.26;100.00;100312.75;5035502;28;20042;-58
2022/10/21 07:23:59;;;;;;;68.93;18.08;;;;;;;14.31;100.00;100334.31;5035706;28;20128;-58
2022/10/21 07:26:30;;;;;;;15.30;6.07;;;;;;;14.30;100.00;100335.34;5035299;28;20172;-58
2022/10/21 07:28:59;;;;;;;15.15;6.10;;;;;;;14.36;100.00;100339.09;5035855;28;20054;-58
2022/10/21 07:31:28;;;;;;;13.40;4.97;;;;;;;14.40;100.00;100356.38;5034798;28;20042;-58
2022/10/21 07:33:54;;;;;;;11.82;5.55;;;;;;;14.46;100.00;100350.31;5035542;28;20045;-58
2022/10/21 07:36:26;;;;;;;21.58;6.10;;;;;;;14.42;100.00;100337.53;5037464;28;20518;-61
2022/10/21 07:38:56;;;;;;;18.30;5.70;;;;;;;14.43;100.00;100344.53;5051993;28;20051;-61
2022/10/21 07:41:29;;;;;;;18.77;5.75;;;;;;;14.42;100.00;100343.69;5056603;28;20041;-61
2022/10/21 07:43:56;;;;;;;17.45;5.75;;;;;;;14.43;100.00;100356.00;5071604;28;20040;-60
2022/10/21 07:46:23;;;;;;;20.85;6.15;;;;;;;14.42;100.00;100357.03;5056791;28;20045;-57
2022/10/21 07:48:51;;;;;;;17.73;6.43;;;;;;;14.35;100.00;100358.78;5053229;28;20041;-58
2022/10/21 07:51:20;;;;;;;15.27;6.05;;;;;;;14.24;100.00;100349.44;5002999;28;20056;-58
2022/10/21 07:53:52;;;;;;;18.88;7.13;;;;;;;14.22;100.00;100351.47;5053394;28;20128;-58
2022/10/21 07:56:22;;;;;;;17.77;7.72;;;;;;;14.14;100.00;100351.59;5061210;28;20040;-58
2022/10/21 07:58:50;;;;;;;18.65;6.97;;;;;;;14.21;100.00;100344.50;5059774;28;20072;-58
2022/10/21 08:01:18;;;;;;;32.15;7.80;;;;;;;14.16;100.00;100344.22;5048287;28;20048;-58
2022/10/21 08:03:45;;;;;;;14.95;7.40;;;;;;;14.20;100.00;100342.81;5055294;28;20055;-58
2022/10/21 08:06:14;;;;;;;18.88;7.65;;;;;;;14.17;100.00;100340.50;5038319;28;20041;-58
2022/10/21 08:08:41;;;;;;;17.83;7.07;;;;;;;14.17;100.00;100345.84;5050574;28;20101;-58
2022/10/21 08:11:08;;;;;;;30.02;11.35;;;;;;;14.25;100.00;100351.09;5059548;28;20037;-50
2022/10/21 08:13:36;;;;;;;20.42;8.02;;;;;;;14.37;100.00;100354.09;5048019;28;20426;-51
2022/10/21 08:16:04;;;;;;;23.42;6.85;;;;;;;14.45;100.00;100350.50;5051479;28;20038;-58
2022/10/21 08:18:31;;;;;;;20.75;6.72;;;;;;;14.36;100.00;100352.44;5049461;28;20119;-58
2022/10/21 08:20:57;;;;;;;18.75;7.20;;;;;;;14.42;100.00;100348.19;5051484;28;20037;-58
2022/10/21 08:23:25;;;;;;;20.13;7.07;;;;;;;14.37;100.00;100354.94;5052321;28;20044;-58
2022/10/21 08:25:54;;;;;;;20.65;7.28;;;;;;;14.32;100.00;100356.50;5063583;28;20040;-58
2022/10/21 08:28:23;;;;;;;21.52;7.80;;;;;;;14.24;100.00;100361.94;5048582;28;20044;-58
2022/10/21 08:30:52;;;;;;;17.77;7.35;;;;;;;14.20;100.00;100362.31;5057532;28;21300;-58
2022/10/21 08:33:18;;;;;;;22.73;7.28;;;;;;;14.21;100.00;100358.63;5041144;28;20037;-58
2022/10/21 08:35:45;;;;;;;21.15;7.53;;;;;;;14.20;100.00;100348.97;5087401;28;20053;-58
2022/10/21 08:38:12;;;;;;;24.80;8.45;;;;;;;14.30;100.00;100343.34;5045161;28;20065;-58
2022/10/21 08:40:44;;;;;;;17.80;7.22;;;;;;;14.23;100.00;100345.13;5035521;28;20041;-59
2022/10/21 08:43:22;;;;;;;17.80;7.55;;;;;;;14.24;100.00;100351.28;5058829;28;20045;-57
2022/10/21 08:45:54;;;;;;;17.77;7.13;;;;;;;14.21;100.00;100355.16;5047488;28;20053;-59
2022/10/21 08:48:28;;;;;;;17.65;7.50;;;;;;;14.27;100.00;100359.72;5060460;28;20139;-58
2022/10/21 08:50:57;;;;;;;27.38;7.65;;;;;;;14.26;100.00;100357.25;5032397;28;20511;-59
2022/10/21 08:53:32;;;;;;;21.23;7.68;;;;;;;14.31;100.00;100358.34;5044549;28;20040;-58
2022/10/21 08:56:05;;;;;;;23.70;7.57;;;;;;;14.24;100.00;100353.94;5051420;28;20449;-58
2022/10/21 08:58:32;;;;;;;19.77;7.35;;;;;;;14.29;100.00;100356.88;5064637;28;20127;-59
2022/10/21 09:01:25;;;;;;;21.17;7.30;;;;;;;14.31;100.00;100361.00;5060563;28;20122;-59
2022/10/21 09:04:16;;;;;;;18.23;7.45;;;;;;;14.33;100.00;100347.47;5040802;28;21118;-59
2022/10/21 09:07:11;;;;;;;25.75;7.55;;;;;;;14.24;100.00;100351.28;5059711;28;20044;-59
2022/10/21 09:09:52;;;;;;;14.35;7.25;;;;;;;14.27;100.00;100354.41;5063980;28;20439;-58
2022/10/21 09:12:34;;;;;;;23.23;7.65;;;;;;;14.32;100.00;100353.84;5030885;28;20120;-59
2022/10/21 09:15:25;;;;;;;27.15;8.45;;;;;;;14.32;100.00;100353.84;5054094;28;20558;-57
2022/10/21 09:18:17;;;;;;;26.38;9.32;;;;;;;14.32;100.00;100360.00;5049135;28;20045;-58
2022/10/21 09:21:04;;;;;;;;;;;;;;;14.40;100.00;100354.53;5066686;28;20040;-58
2022/10/21 09:23:56;;;;;;;25.80;7.43;;;;;;;14.47;100.00;100357.28;5036482;28;19921;-58
2022/10/21 09:26:41;;;;;;;27.90;7.80;;;;;;;14.47;100.00;100361.81;5037266;28;20044;-58
2022/10/21 09:29:28;;;;;;;24.27;8.10;;;;;;;14.37;100.00;100365.59;5043853;28;20132;-58
2022/10/21 09:32:01;;;;;;;22.35;7.47;;;;;;;14.38;100.00;100375.25;5054093;28;20098;-57
2022/10/21 09:35:08;;;;;;;20.15;7.25;;;;;;;14.44;100.00;100383.53;5039793;28;20666;-57
2022/10/21 09:37:41;;;;;;;18.70;7.78;;;;;;;14.46;100.00;100386.81;5058245;28;20049;-58
2022/10/21 09:40:29;;;;;;;19.77;7.47;;;;;;;14.49;100.00;100375.78;5033053;28;20033;-59
2022/10/21 09:42:58;;;;;;;19.63;7.53;;;;;;;14.44;100.00;100371.00;5045352;28;20041;-57
2022/10/21 09:45:35;;;;;;;17.90;7.07;;;;;;;14.49;100.00;100370.44;5055647;28;20042;-57
2022/10/21 09:48:12;;;;;;;23.02;7.03;;;;;;;14.56;100.00;100387.34;5062743;28;20405;-57
2022/10/21 09:50:39;;;;;;;25.90;7.10;;;;;;;14.57;100.00;100395.22;5040042;28;20514;-58
2022/10/21 09:53:16;;;;;;;23.75;7.35;;;;;;;14.61;100.00;100395.66;5011121;28;20116;-58
2022/10/21 09:55:48;;;;;;;19.90;7.53;;;;;;;14.55;100.00;100389.22;5052411;28;20041;-58
2022/10/21 09:58:37;;;;;;;26.05;7.28;;;;;;;14.58;100.00;100385.34;5050495;28;20044;-58
2022/10/21 10:01:05;;;;;;;17.60;6.43;;;;;;;14.54;100.00;100392.06;5052826;28;20383;-58
2022/10/21 10:03:50;;;;;;;18.58;7.47;;;;;;;14.49;100.00;100426.50;5040316;28;20476;-59
2022/10/21 10:06:40;;;;;;;21.65;7.32;;;;;;;14.50;100.00;100433.50;5047522;28;20043;-59
2022/10/21 10:09:14;;;;;;;16.45;7.13;;;;;;;14.57;100.00;100427.25;5059589;28;20052;-59
2022/10/21 10:11:52;;;;;;;23.13;7.35;;;;;;;14.55;100.00;100423.91;5082799;28;20048;-59
2022/10/21 10:14:28;;;;;;;19.23;7.78;;;;;;;14.61;100.00;100411.69;5044251;28;20040;-58
2022/10/21 10:16:57;;;;;;;17.70;7.25;;;;;;;14.58;100.00;100412.03;5058613;28;20068;-59
2022/10/21 10:19:27;;;;;;;20.85;7.57;;;;;;;14.59;100.00;100419.88;5052584;28;20048;-59
2022/10/21 10:22:15;;;;;;;20.50;7.25;;;;;;;14.66;100.00;100419.09;5065618;28;20047;-58
2022/10/21 10:24:43;;;;;;;17.63;7.75;;;;;;;14.59;100.00;100425.22;5039044;28;20086;-57
2022/10/21 10:27:18;;;;;;;19.52;7.53;;;;;;;14.66;100.00;100424.44;5031447;28;20095;-58
2022/10/21 10:29:53;;;;;;;18.35;7.93;;;;;;;14.63;100.00;100427.50;5046072;28;20483;-57
2022/10/21 10:32:23;;;;;;;23.40;7.65;;;;;;;14.69;100.00;100432.09;5067286;28;20036;-57
2022/10/21 10:34:56;;;;;;;16.08;7.85;;;;;;;14.71;100.00;100443.41;5052808;28;20049;-57
2022/10/21 10:37:26;;;;;;;21.58;7.88;;;;;;;14.68;100.00;100441.94;5044195;28;20048;-58
2022/10/21 10:39:56;;;;;;;19.70;7.80;;;;;;;14.62;100.00;100434.66;5029514;28;20064;-58
2022/10/21 10:42:27;;;;;;;23.17;7.85;;;;;;;14.65;100.00;100433.50;5074241;28;20041;-59
2022/10/21 10:44:56;;;;;;;22.60;8.10;;;;;;;14.65;100.00;100434.31;5052874;28;20402;-58
2022/10/21 10:47:28;;;;;;;20.40;7.88;;;;;;;14.70;100.00;100436.44;5049000;28;20129;-57
2022/10/21 10:49:55;;;;;;;17.63;7.22;;;;;;;14.71;100.00;100438.06;5055996;28;20045;-57
2022/10/21 10:52:24;;;;;;;23.30;7.88;;;;;;;14.80;100.00;100444.94;5018852;28;20060;-57
2022/10/21 10:55:13;;;;;;;17.67;7.13;;;;;;;14.81;100.00;100443.94;5049665;28;20885;-59
2022/10/21 10:57:42;;;;;;;22.85;6.72;;;;;;;14.83;100.00;100443.75;5037800;28;20076;-58
2022/10/21 11:00:20;;;;;;;17.90;8.00;;;;;;;14.83;100.00;100444.56;5044884;28;20054;-58
2022/10/21 11:02:56;;;;;;;17.70;7.47;;;;;;;14.88;100.00;100449.31;5045584;28;20128;-58
2022/10/21 11:05:30;;;;;;;18.77;8.13;;;;;;;14.96;100.00;100446.56;5059813;28;20059;-58
2022/10/21 11:11:00;;;;;;;21.20;7.65;;;;;;;15.00;100.00;100442.47;5153111;27;20128;-58
2022/10/21 11:13:27;;;;;;;19.58;8.38;;;;;;;14.93;100.00;100436.25;5081250;28;20506;-57
2022/10/21 11:16:34;;;;;;;18.20;7.80;;;;;;;15.06;100.00;100428.38;5102725;28;20043;-58
2022/10/21 11:21:45;;;;;;;18.05;7.72;;;;;;;15.24;100.00;100425.22;5111750;27;20121;-57
2022/10/21 11:27:37;;;;;;;19.27;7.07;;;;;;;15.38;100.00;100423.50;5098294;27;20765;-58
2022/10/21 11:30:22;;;;;;;15.90;6.72;;;;;;;15.46;100.00;100423.38;5048823;28;20049;-58
2022/10/21 11:33:15;;;;;;;17.30;7.18;;;;;;;15.53;100.00;100413.56;5054242;28;20116;-59
2022/10/21 11:36:08;;;;;;;19.30;6.45;;;;;;;15.62;100.00;100408.88;5051017;28;20038;-57
2022/10/21 11:39:15;;;;;;;17.92;6.72;;;;;;;15.74;100.00;100409.19;5035676;28;20565;-58